sensor_id;sensor_type;location;lat;lon;timestamp;P1;durP1;ratioP1;P2;durP2;ratioP2
66272;SDS011;58450;52.150;4.466;2023-04-25T00:01:16;14.40;;;3.38;;
66272;SDS011;58450;52.150;4.466;2023-04-25T00:03:44;10.48;;;3.03;;
66272;SDS011;58450;52.150;4.466;2023-04-25T00:06:13;11.35;;;2.80;;
66272;SDS011;58450;52.150;4.466;2023-04-25T00:08:41;15.70;;;3.40;;
66272;SDS011;58450;52.150;4.466;2023-04-25T00:11:12;14.30;;;2.80;;
66272;SDS011;58450;52.150;4.466;2023-04-25T00:13:39;10.75;;;2.88;;
66272;SDS011;58450;52.150;4.466;2023-04-25T00:16:07;12.20;;;3.03;;
66272;SDS011;58450;52.150;4.466;2023-04-25T00:18:34;12.70;;;3.45;;
66272;SDS011;58450;52.150;4.466;2023-04-25T00:21:02;11.27;;;3.13;;
66272;SDS011;58450;52.150;4.466;2023-04-25T00:23:33;9.70;;;2.50;;
66272;SDS011;58450;52.150;4.466;2023-04-25T00:26:02;9.82;;;2.85;;
66272;SDS011;58450;52.150;4.466;2023-04-25T00:28:29;10.27;;;2.60;;
66272;SDS011;58450;52.150;4.466;2023-04-25T00:30:57;12.63;;;2.80;;
66272;SDS011;58450;52.150;4.466;2023-04-25T00:33:25;11.15;;;2.47;;
66272;SDS011;58450;52.150;4.466;2023-04-25T00:35:52;10.77;;;2.70;;
66272;SDS011;58450;52.150;4.466;2023-04-25T00:38:20;7.28;;;2.20;;
66272;SDS011;58450;52.150;4.466;2023-04-25T00:40:49;11.80;;;2.63;;
66272;SDS011;58450;52.150;4.466;2023-04-25T00:43:17;12.02;;;2.83;;
66272;SDS011;58450;52.150;4.466;2023-04-25T00:45:44;12.65;;;2.67;;
66272;SDS011;58450;52.150;4.466;2023-04-25T00:48:15;13.20;;;3.00;;
66272;SDS011;58450;52.150;4.466;2023-04-25T00:50:45;9.52;;;2.30;;
66272;SDS011;58450;52.150;4.466;2023-04-25T00:53:19;7.90;;;2.50;;
66272;SDS011;58450;52.150;4.466;2023-04-25T00:55:49;10.95;;;2.65;;
66272;SDS011;58450;52.150;4.466;2023-04-25T00:58:18;10.73;;;2.58;;
66272;SDS011;58450;52.150;4.466;2023-04-25T01:00:47;9.93;;;2.70;;
66272;SDS011;58450;52.150;4.466;2023-04-25T01:03:17;7.65;;;2.20;;
66272;SDS011;58450;52.150;4.466;2023-04-25T01:05:46;7.68;;;2.45;;
66272;SDS011;58450;52.150;4.466;2023-04-25T01:08:14;8.75;;;2.17;;
66272;SDS011;58450;52.150;4.466;2023-04-25T01:10:41;12.60;;;2.90;;
66272;SDS011;58450;52.150;4.466;2023-04-25T01:13:10;10.25;;;2.67;;
66272;SDS011;58450;52.150;4.466;2023-04-25T01:15:38;10.57;;;2.45;;
66272;SDS011;58450;52.150;4.466;2023-04-25T01:18:06;7.25;;;1.80;;
66272;SDS011;58450;52.150;4.466;2023-04-25T01:20:33;4.93;;;2.00;;
66272;SDS011;58450;52.150;4.466;2023-04-25T01:23:02;7.30;;;2.00;;
66272;SDS011;58450;52.150;4.466;2023-04-25T01:25:30;8.07;;;2.35;;
66272;SDS011;58450;52.150;4.466;2023-04-25T01:27:58;12.35;;;2.88;;
66272;SDS011;58450;52.150;4.466;2023-04-25T01:30:26;8.10;;;2.25;;
66272;SDS011;58450;52.150;4.466;2023-04-25T01:32:54;7.85;;;2.10;;
66272;SDS011;58450;52.150;4.466;2023-04-25T01:35:23;9.10;;;2.38;;
66272;SDS011;58450;52.150;4.466;2023-04-25T01:37:51;9.82;;;2.22;;
66272;SDS011;58450;52.150;4.466;2023-04-25T01:40:20;7.15;;;1.88;;
66272;SDS011;58450;52.150;4.466;2023-04-25T01:42:48;8.80;;;2.10;;
66272;SDS011;58450;52.150;4.466;2023-04-25T01:45:17;6.30;;;2.05;;
66272;SDS011;58450;52.150;4.466;2023-04-25T01:47:44;10.98;;;2.17;;
66272;SDS011;58450;52.150;4.466;2023-04-25T01:50:15;10.48;;;2.33;;
66272;SDS011;58450;52.150;4.466;2023-04-25T01:52:44;10.20;;;2.13;;
66272;SDS011;58450;52.150;4.466;2023-04-25T01:55:12;7.40;;;1.83;;
66272;SDS011;58450;52.150;4.466;2023-04-25T01:57:41;12.02;;;2.15;;
66272;SDS011;58450;52.150;4.466;2023-04-25T02:00:08;9.27;;;2.08;;
66272;SDS011;58450;52.150;4.466;2023-04-25T02:02:37;10.35;;;1.98;;
66272;SDS011;58450;52.150;4.466;2023-04-25T02:05:06;11.40;;;2.33;;
66272;SDS011;58450;52.150;4.466;2023-04-25T02:07:34;5.85;;;1.88;;
66272;SDS011;58450;52.150;4.466;2023-04-25T02:10:02;8.75;;;2.53;;
66272;SDS011;58450;52.150;4.466;2023-04-25T02:12:30;9.20;;;2.00;;
66272;SDS011;58450;52.150;4.466;2023-04-25T02:14:59;8.65;;;1.88;;
66272;SDS011;58450;52.150;4.466;2023-04-25T02:17:26;6.60;;;1.58;;
66272;SDS011;58450;52.150;4.466;2023-04-25T02:19:54;5.85;;;1.60;;
66272;SDS011;58450;52.150;4.466;2023-04-25T02:22:21;6.65;;;1.80;;
66272;SDS011;58450;52.150;4.466;2023-04-25T02:24:49;10.73;;;1.73;;
66272;SDS011;58450;52.150;4.466;2023-04-25T02:27:16;6.72;;;1.60;;
66272;SDS011;58450;52.150;4.466;2023-04-25T02:29:43;6.60;;;1.67;;
66272;SDS011;58450;52.150;4.466;2023-04-25T02:32:12;8.15;;;2.00;;
66272;SDS011;58450;52.150;4.466;2023-04-25T02:34:40;6.15;;;2.05;;
66272;SDS011;58450;52.150;4.466;2023-04-25T02:37:07;7.03;;;1.88;;
66272;SDS011;58450;52.150;4.466;2023-04-25T02:39:34;7.53;;;1.98;;
66272;SDS011;58450;52.150;4.466;2023-04-25T02:42:02;6.90;;;1.63;;
66272;SDS011;58450;52.150;4.466;2023-04-25T02:44:30;8.23;;;1.70;;
66272;SDS011;58450;52.150;4.466;2023-04-25T02:46:57;5.25;;;1.80;;
66272;SDS011;58450;52.150;4.466;2023-04-25T02:49:26;9.80;;;1.92;;
66272;SDS011;58450;52.150;4.466;2023-04-25T02:51:53;6.43;;;1.98;;
66272;SDS011;58450;52.150;4.466;2023-04-25T02:54:21;6.38;;;1.60;;
66272;SDS011;58450;52.150;4.466;2023-04-25T02:56:48;7.25;;;1.83;;
66272;SDS011;58450;52.150;4.466;2023-04-25T02:59:16;5.72;;;1.83;;
66272;SDS011;58450;52.150;4.466;2023-04-25T03:01:43;8.27;;;1.85;;
66272;SDS011;58450;52.150;4.466;2023-04-25T03:04:11;8.85;;;1.90;;
66272;SDS011;58450;52.150;4.466;2023-04-25T03:06:40;11.82;;;2.35;;
66272;SDS011;58450;52.150;4.466;2023-04-25T03:09:07;5.78;;;1.98;;
66272;SDS011;58450;52.150;4.466;2023-04-25T03:11:35;8.40;;;1.77;;
66272;SDS011;58450;52.150;4.466;2023-04-25T03:14:03;7.55;;;1.70;;
66272;SDS011;58450;52.150;4.466;2023-04-25T03:16:31;7.25;;;1.75;;
66272;SDS011;58450;52.150;4.466;2023-04-25T03:18:58;12.65;;;2.75;;
66272;SDS011;58450;52.150;4.466;2023-04-25T03:21:26;9.43;;;2.10;;
66272;SDS011;58450;52.150;4.466;2023-04-25T03:23:55;9.32;;;1.77;;
66272;SDS011;58450;52.150;4.466;2023-04-25T03:26:22;9.23;;;2.00;;
66272;SDS011;58450;52.150;4.466;2023-04-25T03:28:50;8.23;;;1.90;;
66272;SDS011;58450;52.150;4.466;2023-04-25T03:31:17;11.02;;;1.90;;
66272;SDS011;58450;52.150;4.466;2023-04-25T03:33:45;11.30;;;2.17;;
66272;SDS011;58450;52.150;4.466;2023-04-25T03:36:12;7.18;;;1.80;;
66272;SDS011;58450;52.150;4.466;2023-04-25T03:38:40;11.48;;;2.50;;
66272;SDS011;58450;52.150;4.466;2023-04-25T03:41:09;8.40;;;1.92;;
66272;SDS011;58450;52.150;4.466;2023-04-25T03:43:36;4.80;;;1.60;;
66272;SDS011;58450;52.150;4.466;2023-04-25T03:46:04;7.30;;;1.77;;
66272;SDS011;58450;52.150;4.466;2023-04-25T03:48:31;6.28;;;1.75;;
66272;SDS011;58450;52.150;4.466;2023-04-25T03:50:59;9.52;;;2.20;;
66272;SDS011;58450;52.150;4.466;2023-04-25T03:53:26;9.88;;;1.80;;
66272;SDS011;58450;52.150;4.466;2023-04-25T03:55:54;6.90;;;1.40;;
66272;SDS011;58450;52.150;4.466;2023-04-25T03:58:23;8.48;;;1.90;;
66272;SDS011;58450;52.150;4.466;2023-04-25T04:00:50;6.50;;;1.98;;
66272;SDS011;58450;52.150;4.466;2023-04-25T04:03:18;9.50;;;2.00;;
66272;SDS011;58450;52.150;4.466;2023-04-25T04:05:46;8.25;;;1.98;;
66272;SDS011;58450;52.150;4.466;2023-04-25T04:08:13;8.27;;;1.83;;
66272;SDS011;58450;52.150;4.466;2023-04-25T04:10:41;9.60;;;1.80;;
66272;SDS011;58450;52.150;4.466;2023-04-25T04:13:08;6.95;;;2.10;;
66272;SDS011;58450;52.150;4.466;2023-04-25T04:15:37;10.80;;;2.40;;
66272;SDS011;58450;52.150;4.466;2023-04-25T04:18:05;6.50;;;1.92;;
66272;SDS011;58450;52.150;4.466;2023-04-25T04:20:32;9.52;;;2.17;;
66272;SDS011;58450;52.150;4.466;2023-04-25T04:23:00;10.07;;;1.92;;
66272;SDS011;58450;52.150;4.466;2023-04-25T04:25:28;7.55;;;1.98;;
66272;SDS011;58450;52.150;4.466;2023-04-25T04:27:55;6.13;;;1.65;;
66272;SDS011;58450;52.150;4.466;2023-04-25T04:30:24;5.93;;;1.95;;
66272;SDS011;58450;52.150;4.466;2023-04-25T04:32:56;6.63;;;1.60;;
66272;SDS011;58450;52.150;4.466;2023-04-25T04:35:24;6.18;;;1.63;;
66272;SDS011;58450;52.150;4.466;2023-04-25T04:37:51;5.07;;;1.50;;
66272;SDS011;58450;52.150;4.466;2023-04-25T04:40:20;5.53;;;1.70;;
66272;SDS011;58450;52.150;4.466;2023-04-25T04:42:48;6.50;;;1.77;;
66272;SDS011;58450;52.150;4.466;2023-04-25T04:45:15;7.65;;;1.65;;
66272;SDS011;58450;52.150;4.466;2023-04-25T04:47:45;6.43;;;1.80;;
66272;SDS011;58450;52.150;4.466;2023-04-25T04:50:13;7.00;;;1.73;;
66272;SDS011;58450;52.150;4.466;2023-04-25T04:52:41;8.80;;;2.15;;
66272;SDS011;58450;52.150;4.466;2023-04-25T04:55:09;6.10;;;1.67;;
66272;SDS011;58450;52.150;4.466;2023-04-25T04:57:37;7.32;;;1.65;;
66272;SDS011;58450;52.150;4.466;2023-04-25T05:00:05;5.85;;;1.73;;
66272;SDS011;58450;52.150;4.466;2023-04-25T05:02:36;8.80;;;1.80;;
66272;SDS011;58450;52.150;4.466;2023-04-25T05:05:05;9.02;;;1.70;;
66272;SDS011;58450;52.150;4.466;2023-04-25T05:07:34;7.60;;;1.55;;
66272;SDS011;58450;52.150;4.466;2023-04-25T05:10:02;5.65;;;1.75;;
66272;SDS011;58450;52.150;4.466;2023-04-25T05:12:31;6.70;;;1.63;;
66272;SDS011;58450;52.150;4.466;2023-04-25T05:14:58;5.60;;;1.75;;
66272;SDS011;58450;52.150;4.466;2023-04-25T05:17:26;5.50;;;1.35;;
66272;SDS011;58450;52.150;4.466;2023-04-25T05:19:53;5.00;;;1.48;;
66272;SDS011;58450;52.150;4.466;2023-04-25T05:22:20;7.72;;;1.58;;
66272;SDS011;58450;52.150;4.466;2023-04-25T05:24:51;3.38;;;1.30;;
66272;SDS011;58450;52.150;4.466;2023-04-25T05:27:19;6.95;;;1.55;;
66272;SDS011;58450;52.150;4.466;2023-04-25T05:29:47;4.93;;;1.38;;
66272;SDS011;58450;52.150;4.466;2023-04-25T05:32:14;4.72;;;1.70;;
66272;SDS011;58450;52.150;4.466;2023-04-25T05:34:42;3.35;;;1.17;;
66272;SDS011;58450;52.150;4.466;2023-04-25T05:37:10;3.88;;;1.42;;
66272;SDS011;58450;52.150;4.466;2023-04-25T05:39:37;5.65;;;1.17;;
66272;SDS011;58450;52.150;4.466;2023-04-25T05:42:06;2.20;;;1.15;;
66272;SDS011;58450;52.150;4.466;2023-04-25T05:44:33;2.92;;;0.90;;
66272;SDS011;58450;52.150;4.466;2023-04-25T05:47:01;3.30;;;1.15;;
66272;SDS011;58450;52.150;4.466;2023-04-25T05:49:30;2.70;;;1.00;;
66272;SDS011;58450;52.150;4.466;2023-04-25T05:51:57;4.30;;;1.48;;
66272;SDS011;58450;52.150;4.466;2023-04-25T05:54:25;2.70;;;1.20;;
66272;SDS011;58450;52.150;4.466;2023-04-25T05:56:52;2.47;;;0.90;;
66272;SDS011;58450;52.150;4.466;2023-04-25T05:59:21;5.28;;;1.17;;
66272;SDS011;58450;52.150;4.466;2023-04-25T06:01:49;3.95;;;0.93;;
66272;SDS011;58450;52.150;4.466;2023-04-25T06:04:17;4.25;;;1.17;;
66272;SDS011;58450;52.150;4.466;2023-04-25T06:06:44;5.82;;;1.20;;
66272;SDS011;58450;52.150;4.466;2023-04-25T06:09:12;8.48;;;1.90;;
66272;SDS011;58450;52.150;4.466;2023-04-25T06:11:39;6.38;;;1.40;;
66272;SDS011;58450;52.150;4.466;2023-04-25T06:14:07;3.58;;;1.17;;
66272;SDS011;58450;52.150;4.466;2023-04-25T06:16:36;6.50;;;1.92;;
66272;SDS011;58450;52.150;4.466;2023-04-25T06:19:03;7.88;;;1.73;;
66272;SDS011;58450;52.150;4.466;2023-04-25T06:21:31;4.90;;;1.52;;
66272;SDS011;58450;52.150;4.466;2023-04-25T06:23:58;5.85;;;1.40;;
66272;SDS011;58450;52.150;4.466;2023-04-25T06:26:25;7.30;;;1.52;;
66272;SDS011;58450;52.150;4.466;2023-04-25T06:28:53;6.07;;;1.50;;
66272;SDS011;58450;52.150;4.466;2023-04-25T06:31:20;8.80;;;1.95;;
66272;SDS011;58450;52.150;4.466;2023-04-25T06:33:49;6.00;;;2.00;;
66272;SDS011;58450;52.150;4.466;2023-04-25T06:36:20;7.30;;;1.83;;
66272;SDS011;58450;52.150;4.466;2023-04-25T06:38:50;5.60;;;1.40;;
66272;SDS011;58450;52.150;4.466;2023-04-25T06:41:18;9.10;;;1.85;;
66272;SDS011;58450;52.150;4.466;2023-04-25T06:43:46;7.13;;;1.80;;
66272;SDS011;58450;52.150;4.466;2023-04-25T06:46:13;6.28;;;1.55;;
66272;SDS011;58450;52.150;4.466;2023-04-25T06:48:41;6.57;;;1.63;;
66272;SDS011;58450;52.150;4.466;2023-04-25T06:51:10;6.63;;;1.70;;
66272;SDS011;58450;52.150;4.466;2023-04-25T06:53:38;4.60;;;1.30;;
66272;SDS011;58450;52.150;4.466;2023-04-25T06:56:06;4.93;;;1.45;;
66272;SDS011;58450;52.150;4.466;2023-04-25T06:58:34;6.05;;;1.40;;
66272;SDS011;58450;52.150;4.466;2023-04-25T07:01:01;6.72;;;1.45;;
66272;SDS011;58450;52.150;4.466;2023-04-25T07:03:29;7.40;;;1.58;;
66272;SDS011;58450;52.150;4.466;2023-04-25T07:05:56;8.15;;;1.50;;
66272;SDS011;58450;52.150;4.466;2023-04-25T07:08:25;5.30;;;1.30;;
66272;SDS011;58450;52.150;4.466;2023-04-25T07:10:53;4.95;;;1.30;;
66272;SDS011;58450;52.150;4.466;2023-04-25T07:13:20;5.55;;;1.23;;
66272;SDS011;58450;52.150;4.466;2023-04-25T07:15:48;6.22;;;1.30;;
66272;SDS011;58450;52.150;4.466;2023-04-25T07:18:15;5.75;;;1.50;;
66272;SDS011;58450;52.150;4.466;2023-04-25T07:20:43;4.50;;;1.10;;
66272;SDS011;58450;52.150;4.466;2023-04-25T07:23:10;5.47;;;1.08;;
66272;SDS011;58450;52.150;4.466;2023-04-25T07:25:39;4.00;;;1.30;;
66272;SDS011;58450;52.150;4.466;2023-04-25T07:28:07;3.50;;;1.05;;
66272;SDS011;58450;52.150;4.466;2023-04-25T07:30:34;2.17;;;0.90;;
66272;SDS011;58450;52.150;4.466;2023-04-25T07:33:02;5.63;;;1.27;;
66272;SDS011;58450;52.150;4.466;2023-04-25T07:35:30;5.00;;;1.10;;
66272;SDS011;58450;52.150;4.466;2023-04-25T07:37:57;3.80;;;1.10;;
66272;SDS011;58450;52.150;4.466;2023-04-25T07:40:25;5.18;;;1.10;;
66272;SDS011;58450;52.150;4.466;2023-04-25T07:42:54;5.85;;;1.10;;
66272;SDS011;58450;52.150;4.466;2023-04-25T07:45:21;5.80;;;1.52;;
66272;SDS011;58450;52.150;4.466;2023-04-25T07:47:49;6.78;;;1.55;;
66272;SDS011;58450;52.150;4.466;2023-04-25T07:50:16;6.28;;;1.40;;
66272;SDS011;58450;52.150;4.466;2023-04-25T07:52:44;4.65;;;1.20;;
66272;SDS011;58450;52.150;4.466;2023-04-25T07:55:11;5.03;;;1.35;;
66272;SDS011;58450;52.150;4.466;2023-04-25T07:57:39;4.25;;;1.30;;
66272;SDS011;58450;52.150;4.466;2023-04-25T08:00:08;2.63;;;1.05;;
66272;SDS011;58450;52.150;4.466;2023-04-25T08:02:37;7.22;;;1.30;;
66272;SDS011;58450;52.150;4.466;2023-04-25T08:05:05;5.05;;;1.13;;
66272;SDS011;58450;52.150;4.466;2023-04-25T08:07:34;4.30;;;1.40;;
66272;SDS011;58450;52.150;4.466;2023-04-25T08:10:01;4.63;;;1.13;;
66272;SDS011;58450;52.150;4.466;2023-04-25T08:12:29;6.03;;;1.40;;
66272;SDS011;58450;52.150;4.466;2023-04-25T08:14:56;5.47;;;2.00;;
66272;SDS011;58450;52.150;4.466;2023-04-25T08:17:25;4.97;;;1.13;;
66272;SDS011;58450;52.150;4.466;2023-04-25T08:19:53;4.40;;;1.17;;
66272;SDS011;58450;52.150;4.466;2023-04-25T08:22:21;3.92;;;1.17;;
66272;SDS011;58450;52.150;4.466;2023-04-25T08:24:48;3.28;;;0.85;;
66272;SDS011;58450;52.150;4.466;2023-04-25T08:27:16;4.78;;;1.00;;
66272;SDS011;58450;52.150;4.466;2023-04-25T08:29:44;3.97;;;0.88;;
66272;SDS011;58450;52.150;4.466;2023-04-25T08:32:12;4.88;;;1.00;;
66272;SDS011;58450;52.150;4.466;2023-04-25T08:34:41;4.25;;;1.10;;
66272;SDS011;58450;52.150;4.466;2023-04-25T08:37:09;2.78;;;0.95;;
66272;SDS011;58450;52.150;4.466;2023-04-25T08:39:37;3.03;;;0.90;;
66272;SDS011;58450;52.150;4.466;2023-04-25T08:42:05;4.13;;;1.00;;
66272;SDS011;58450;52.150;4.466;2023-04-25T08:44:34;4.03;;;1.00;;
66272;SDS011;58450;52.150;4.466;2023-04-25T08:47:02;6.45;;;1.30;;
66272;SDS011;58450;52.150;4.466;2023-04-25T08:49:31;3.22;;;1.00;;
66272;SDS011;58450;52.150;4.466;2023-04-25T08:52:01;6.05;;;1.25;;
66272;SDS011;58450;52.150;4.466;2023-04-25T08:54:32;4.03;;;1.13;;
66272;SDS011;58450;52.150;4.466;2023-04-25T08:57:00;2.60;;;1.05;;
66272;SDS011;58450;52.150;4.466;2023-04-25T08:59:29;3.17;;;1.10;;
66272;SDS011;58450;52.150;4.466;2023-04-25T09:01:59;2.80;;;0.93;;
66272;SDS011;58450;52.150;4.466;2023-04-25T09:04:27;3.80;;;1.13;;
66272;SDS011;58450;52.150;4.466;2023-04-25T09:06:57;4.57;;;1.27;;
66272;SDS011;58450;52.150;4.466;2023-04-25T09:09:26;3.03;;;1.00;;
66272;SDS011;58450;52.150;4.466;2023-04-25T09:11:54;5.85;;;1.20;;
66272;SDS011;58450;52.150;4.466;2023-04-25T09:14:22;5.97;;;1.30;;
66272;SDS011;58450;52.150;4.466;2023-04-25T09:16:57;5.60;;;1.30;;
66272;SDS011;58450;52.150;4.466;2023-04-25T09:19:28;5.28;;;0.88;;
66272;SDS011;58450;52.150;4.466;2023-04-25T09:21:59;6.53;;;1.23;;
66272;SDS011;58450;52.150;4.466;2023-04-25T09:24:34;3.63;;;1.20;;
66272;SDS011;58450;52.150;4.466;2023-04-25T09:27:03;4.30;;;1.00;;
66272;SDS011;58450;52.150;4.466;2023-04-25T09:29:33;3.15;;;1.10;;
66272;SDS011;58450;52.150;4.466;2023-04-25T09:32:14;3.38;;;1.02;;
66272;SDS011;58450;52.150;4.466;2023-04-25T09:34:45;5.32;;;1.10;;
66272;SDS011;58450;52.150;4.466;2023-04-25T09:37:19;4.20;;;1.02;;
66272;SDS011;58450;52.150;4.466;2023-04-25T09:39:50;4.28;;;1.20;;
66272;SDS011;58450;52.150;4.466;2023-04-25T09:42:21;4.22;;;0.93;;
66272;SDS011;58450;52.150;4.466;2023-04-25T09:44:51;5.90;;;1.30;;
66272;SDS011;58450;52.150;4.466;2023-04-25T09:47:22;4.32;;;1.15;;
66272;SDS011;58450;52.150;4.466;2023-04-25T09:49:53;4.18;;;1.10;;
66272;SDS011;58450;52.150;4.466;2023-04-25T09:52:22;7.07;;;1.50;;
66272;SDS011;58450;52.150;4.466;2023-04-25T09:54:53;5.63;;;1.23;;
66272;SDS011;58450;52.150;4.466;2023-04-25T09:57:21;5.55;;;1.33;;
66272;SDS011;58450;52.150;4.466;2023-04-25T09:59:51;6.93;;;1.30;;
66272;SDS011;58450;52.150;4.466;2023-04-25T10:02:23;3.65;;;1.00;;
66272;SDS011;58450;52.150;4.466;2023-04-25T10:04:53;7.30;;;1.42;;
66272;SDS011;58450;52.150;4.466;2023-04-25T10:07:22;5.03;;;1.30;;
66272;SDS011;58450;52.150;4.466;2023-04-25T10:09:58;5.20;;;1.20;;
66272;SDS011;58450;52.150;4.466;2023-04-25T10:12:28;4.63;;;1.30;;
66272;SDS011;58450;52.150;4.466;2023-04-25T10:14:56;5.60;;;1.15;;
66272;SDS011;58450;52.150;4.466;2023-04-25T10:17:26;6.00;;;1.20;;
66272;SDS011;58450;52.150;4.466;2023-04-25T10:19:54;4.38;;;0.93;;
66272;SDS011;58450;52.150;4.466;2023-04-25T10:22:23;4.65;;;1.23;;
66272;SDS011;58450;52.150;4.466;2023-04-25T10:25:01;3.97;;;0.90;;
66272;SDS011;58450;52.150;4.466;2023-04-25T10:27:29;5.05;;;1.15;;
66272;SDS011;58450;52.150;4.466;2023-04-25T10:30:00;5.47;;;1.15;;
66272;SDS011;58450;52.150;4.466;2023-04-25T10:32:30;5.18;;;1.10;;
66272;SDS011;58450;52.150;4.466;2023-04-25T10:35:04;5.80;;;1.38;;
66272;SDS011;58450;52.150;4.466;2023-04-25T10:37:42;4.75;;;1.27;;
66272;SDS011;58450;52.150;4.466;2023-04-25T10:40:26;3.22;;;1.05;;
66272;SDS011;58450;52.150;4.466;2023-04-25T10:42:54;4.95;;;1.10;;
66272;SDS011;58450;52.150;4.466;2023-04-25T10:45:22;4.63;;;1.20;;
66272;SDS011;58450;52.150;4.466;2023-04-25T10:47:49;5.60;;;1.23;;
66272;SDS011;58450;52.150;4.466;2023-04-25T10:50:17;6.80;;;1.33;;
66272;SDS011;58450;52.150;4.466;2023-04-25T10:52:44;6.50;;;1.35;;
66272;SDS011;58450;52.150;4.466;2023-04-25T10:55:12;3.85;;;1.10;;
66272;SDS011;58450;52.150;4.466;2023-04-25T10:57:41;4.28;;;1.15;;
66272;SDS011;58450;52.150;4.466;2023-04-25T11:00:13;4.53;;;1.10;;
66272;SDS011;58450;52.150;4.466;2023-04-25T11:02:46;4.22;;;1.15;;
66272;SDS011;58450;52.150;4.466;2023-04-25T11:05:19;2.15;;;0.90;;
66272;SDS011;58450;52.150;4.466;2023-04-25T11:07:55;4.35;;;1.27;;
66272;SDS011;58450;52.150;4.466;2023-04-25T11:10:25;7.75;;;1.27;;
66272;SDS011;58450;52.150;4.466;2023-04-25T11:12:55;7.07;;;1.50;;
66272;SDS011;58450;52.150;4.466;2023-04-25T11:15:22;5.43;;;1.48;;
66272;SDS011;58450;52.150;4.466;2023-04-25T11:17:51;5.30;;;1.27;;
66272;SDS011;58450;52.150;4.466;2023-04-25T11:20:19;4.13;;;1.20;;
66272;SDS011;58450;52.150;4.466;2023-04-25T11:22:47;8.65;;;1.60;;
66272;SDS011;58450;52.150;4.466;2023-04-25T11:25:15;8.60;;;1.58;;
66272;SDS011;58450;52.150;4.466;2023-04-25T11:27:49;7.15;;;1.45;;
66272;SDS011;58450;52.150;4.466;2023-04-25T11:30:19;3.30;;;1.30;;
66272;SDS011;58450;52.150;4.466;2023-04-25T11:32:49;4.88;;;1.20;;
66272;SDS011;58450;52.150;4.466;2023-04-25T11:35:18;4.72;;;1.08;;
66272;SDS011;58450;52.150;4.466;2023-04-25T11:37:48;3.63;;;1.20;;
66272;SDS011;58450;52.150;4.466;2023-04-25T11:40:16;6.05;;;1.08;;
66272;SDS011;58450;52.150;4.466;2023-04-25T11:42:44;5.50;;;1.10;;
66272;SDS011;58450;52.150;4.466;2023-04-25T11:45:14;5.60;;;1.55;;
66272;SDS011;58450;52.150;4.466;2023-04-25T11:47:43;4.05;;;1.23;;
66272;SDS011;58450;52.150;4.466;2023-04-25T11:50:11;5.07;;;1.10;;
66272;SDS011;58450;52.150;4.466;2023-04-25T11:52:40;3.72;;;0.93;;
66272;SDS011;58450;52.150;4.466;2023-04-25T11:55:10;4.28;;;1.17;;
66272;SDS011;58450;52.150;4.466;2023-04-25T11:57:41;3.33;;;1.15;;
66272;SDS011;58450;52.150;4.466;2023-04-25T12:00:11;4.50;;;1.02;;
66272;SDS011;58450;52.150;4.466;2023-04-25T12:02:41;4.32;;;0.82;;
66272;SDS011;58450;52.150;4.466;2023-04-25T12:05:12;6.55;;;1.13;;
66272;SDS011;58450;52.150;4.466;2023-04-25T12:07:42;7.15;;;1.40;;
66272;SDS011;58450;52.150;4.466;2023-04-25T12:10:11;4.65;;;1.30;;
66272;SDS011;58450;52.150;4.466;2023-04-25T12:12:41;4.88;;;1.25;;
66272;SDS011;58450;52.150;4.466;2023-04-25T12:15:11;5.90;;;1.23;;
66272;SDS011;58450;52.150;4.466;2023-04-25T12:17:45;5.07;;;1.10;;
66272;SDS011;58450;52.150;4.466;2023-04-25T12:20:15;8.10;;;1.33;;
66272;SDS011;58450;52.150;4.466;2023-04-25T12:22:46;5.50;;;1.20;;
66272;SDS011;58450;52.150;4.466;2023-04-25T12:28:11;9.18;;;1.50;;
66272;SDS011;58450;52.150;4.466;2023-04-25T12:30:56;5.35;;;1.25;;
66272;SDS011;58450;52.150;4.466;2023-04-25T12:33:26;5.70;;;1.40;;
66272;SDS011;58450;52.150;4.466;2023-04-25T12:35:56;5.72;;;1.10;;
66272;SDS011;58450;52.150;4.466;2023-04-25T12:38:24;2.88;;;1.10;;
66272;SDS011;58450;52.150;4.466;2023-04-25T12:40:53;3.80;;;0.93;;
66272;SDS011;58450;52.150;4.466;2023-04-25T12:43:21;3.45;;;1.20;;
66272;SDS011;58450;52.150;4.466;2023-04-25T12:45:49;7.00;;;1.65;;
66272;SDS011;58450;52.150;4.466;2023-04-25T12:48:17;6.00;;;1.35;;
66272;SDS011;58450;52.150;4.466;2023-04-25T12:50:47;6.20;;;1.15;;
66272;SDS011;58450;52.150;4.466;2023-04-25T12:53:17;5.05;;;1.50;;
66272;SDS011;58450;52.150;4.466;2023-04-25T12:55:46;4.90;;;1.30;;
66272;SDS011;58450;52.150;4.466;2023-04-25T12:58:15;5.90;;;1.42;;
66272;SDS011;58450;52.150;4.466;2023-04-25T13:00:44;4.93;;;1.40;;
66272;SDS011;58450;52.150;4.466;2023-04-25T13:03:13;7.53;;;1.40;;
66272;SDS011;58450;52.150;4.466;2023-04-25T13:05:41;3.85;;;1.30;;
66272;SDS011;58450;52.150;4.466;2023-04-25T13:08:11;5.28;;;1.30;;
66272;SDS011;58450;52.150;4.466;2023-04-25T13:10:39;5.88;;;1.20;;
66272;SDS011;58450;52.150;4.466;2023-04-25T13:13:06;5.32;;;1.13;;
66272;SDS011;58450;52.150;4.466;2023-04-25T13:15:34;4.38;;;1.13;;
66272;SDS011;58450;52.150;4.466;2023-04-25T13:18:02;4.93;;;1.20;;
66272;SDS011;58450;52.150;4.466;2023-04-25T13:20:30;5.10;;;1.30;;
66272;SDS011;58450;52.150;4.466;2023-04-25T13:22:58;6.40;;;1.58;;
66272;SDS011;58450;52.150;4.466;2023-04-25T13:25:26;6.43;;;1.20;;
66272;SDS011;58450;52.150;4.466;2023-04-25T13:27:54;6.18;;;1.55;;
66272;SDS011;58450;52.150;4.466;2023-04-25T13:30:21;6.40;;;1.55;;
66272;SDS011;58450;52.150;4.466;2023-04-25T13:32:49;4.07;;;1.13;;
66272;SDS011;58450;52.150;4.466;2023-04-25T13:35:16;5.63;;;1.20;;
66272;SDS011;58450;52.150;4.466;2023-04-25T13:37:44;5.35;;;1.20;;
66272;SDS011;58450;52.150;4.466;2023-04-25T13:40:11;6.15;;;1.00;;
66272;SDS011;58450;52.150;4.466;2023-04-25T13:42:40;3.53;;;0.93;;
66272;SDS011;58450;52.150;4.466;2023-04-25T13:45:10;6.10;;;1.40;;
66272;SDS011;58450;52.150;4.466;2023-04-25T13:47:37;3.85;;;1.13;;
66272;SDS011;58450;52.150;4.466;2023-04-25T13:50:05;3.33;;;0.80;;
66272;SDS011;58450;52.150;4.466;2023-04-25T13:52:34;4.13;;;1.27;;
66272;SDS011;58450;52.150;4.466;2023-04-25T13:55:02;5.47;;;1.17;;
66272;SDS011;58450;52.150;4.466;2023-04-25T13:57:32;5.18;;;1.20;;
66272;SDS011;58450;52.150;4.466;2023-04-25T14:00:02;3.75;;;0.98;;
66272;SDS011;58450;52.150;4.466;2023-04-25T14:02:34;3.83;;;0.93;;
66272;SDS011;58450;52.150;4.466;2023-04-25T14:05:02;6.00;;;1.10;;
66272;SDS011;58450;52.150;4.466;2023-04-25T14:07:30;4.05;;;0.90;;
66272;SDS011;58450;52.150;4.466;2023-04-25T14:09:58;6.90;;;1.20;;
66272;SDS011;58450;52.150;4.466;2023-04-25T14:12:25;5.82;;;1.20;;
66272;SDS011;58450;52.150;4.466;2023-04-25T14:14:53;3.55;;;0.90;;
66272;SDS011;58450;52.150;4.466;2023-04-25T14:17:22;4.00;;;1.23;;
66272;SDS011;58450;52.150;4.466;2023-04-25T14:19:49;4.50;;;1.00;;
66272;SDS011;58450;52.150;4.466;2023-04-25T14:22:17;4.18;;;1.20;;
66272;SDS011;58450;52.150;4.466;2023-04-25T14:24:45;4.72;;;1.20;;
66272;SDS011;58450;52.150;4.466;2023-04-25T14:27:12;4.90;;;1.10;;
66272;SDS011;58450;52.150;4.466;2023-04-25T14:29:40;5.63;;;0.98;;
66272;SDS011;58450;52.150;4.466;2023-04-25T14:32:07;4.65;;;1.20;;
66272;SDS011;58450;52.150;4.466;2023-04-25T14:34:36;5.03;;;1.25;;
66272;SDS011;58450;52.150;4.466;2023-04-25T14:37:03;5.10;;;1.17;;
66272;SDS011;58450;52.150;4.466;2023-04-25T14:39:31;6.60;;;1.20;;
66272;SDS011;58450;52.150;4.466;2023-04-25T14:41:58;6.25;;;1.55;;
66272;SDS011;58450;52.150;4.466;2023-04-25T14:44:27;4.78;;;1.45;;
66272;SDS011;58450;52.150;4.466;2023-04-25T14:46:54;4.95;;;1.30;;
66272;SDS011;58450;52.150;4.466;2023-04-25T14:49:22;5.38;;;1.08;;
66272;SDS011;58450;52.150;4.466;2023-04-25T14:51:51;7.95;;;1.70;;
66272;SDS011;58450;52.150;4.466;2023-04-25T14:54:19;6.80;;;1.50;;
66272;SDS011;58450;52.150;4.466;2023-04-25T14:56:46;7.18;;;1.67;;